sensor_id;sensor_type;location;lat;lon;timestamp;P1;durP1;ratioP1;P2;durP2;ratioP2
64854;SDS011;51321;50.428;8.378;2022-11-25T00:00:06;8.95;;;4.05;;
64854;SDS011;51321;50.428;8.378;2022-11-25T00:02:32;9.38;;;3.78;;
64854;SDS011;51321;50.428;8.378;2022-11-25T00:07:16;9.05;;;4.40;;
64854;SDS011;51321;50.428;8.378;2022-11-25T00:09:40;8.40;;;3.70;;
64854;SDS011;51321;50.428;8.378;2022-11-25T00:12:04;8.70;;;3.17;;
64854;SDS011;51321;50.428;8.378;2022-11-25T00:14:27;12.73;;;6.28;;
64854;SDS011;51321;50.428;8.378;2022-11-25T00:16:50;11.20;;;5.20;;
64854;SDS011;51321;50.428;8.378;2022-11-25T00:19:12;7.40;;;5.28;;
64854;SDS011;51321;50.428;8.378;2022-11-25T00:21:34;10.93;;;4.93;;
64854;SDS011;51321;50.428;8.378;2022-11-25T00:24:00;8.48;;;5.18;;
64854;SDS011;51321;50.428;8.378;2022-11-25T00:26:26;12.52;;;5.85;;
64854;SDS011;51321;50.428;8.378;2022-11-25T00:28:51;11.57;;;5.80;;
64854;SDS011;51321;50.428;8.378;2022-11-25T00:31:16;10.18;;;4.82;;
64854;SDS011;51321;50.428;8.378;2022-11-25T00:33:40;8.98;;;4.50;;
64854;SDS011;51321;50.428;8.378;2022-11-25T00:36:06;10.77;;;5.63;;
64854;SDS011;51321;50.428;8.378;2022-11-25T00:38:35;14.45;;;4.28;;
64854;SDS011;51321;50.428;8.378;2022-11-25T00:40:59;8.98;;;3.85;;
64854;SDS011;51321;50.428;8.378;2022-11-25T00:43:40;8.45;;;4.68;;
64854;SDS011;51321;50.428;8.378;2022-11-25T00:46:20;8.63;;;4.38;;
64854;SDS011;51321;50.428;8.378;2022-11-25T00:48:43;11.90;;;4.88;;
64854;SDS011;51321;50.428;8.378;2022-11-25T00:51:05;10.93;;;4.80;;
64854;SDS011;51321;50.428;8.378;2022-11-25T00:53:31;14.43;;;5.03;;
64854;SDS011;51321;50.428;8.378;2022-11-25T00:55:56;9.77;;;4.57;;
64854;SDS011;51321;50.428;8.378;2022-11-25T00:58:34;11.80;;;4.85;;
64854;SDS011;51321;50.428;8.378;2022-11-25T01:01:01;9.57;;;4.35;;
64854;SDS011;51321;50.428;8.378;2022-11-25T01:03:23;9.35;;;4.13;;
64854;SDS011;51321;50.428;8.378;2022-11-25T01:05:46;9.30;;;4.05;;
64854;SDS011;51321;50.428;8.378;2022-11-25T01:08:11;9.98;;;4.00;;
64854;SDS011;51321;50.428;8.378;2022-11-25T01:12:56;7.72;;;3.75;;
64854;SDS011;51321;50.428;8.378;2022-11-25T01:17:42;6.55;;;3.40;;
64854;SDS011;51321;50.428;8.378;2022-11-25T01:20:06;8.75;;;3.90;;
64854;SDS011;51321;50.428;8.378;2022-11-25T01:22:33;13.02;;;3.60;;
64854;SDS011;51321;50.428;8.378;2022-11-25T01:24:57;6.53;;;3.20;;
64854;SDS011;51321;50.428;8.378;2022-11-25T01:27:20;7.30;;;3.00;;
64854;SDS011;51321;50.428;8.378;2022-11-25T01:29:43;6.97;;;2.83;;
64854;SDS011;51321;50.428;8.378;2022-11-25T01:32:07;6.50;;;2.67;;
64854;SDS011;51321;50.428;8.378;2022-11-25T01:34:34;7.88;;;2.85;;
64854;SDS011;51321;50.428;8.378;2022-11-25T01:36:56;10.77;;;3.08;;
64854;SDS011;51321;50.428;8.378;2022-11-25T01:39:19;7.75;;;2.95;;
64854;SDS011;51321;50.428;8.378;2022-11-25T01:41:43;9.05;;;3.05;;
64854;SDS011;51321;50.428;8.378;2022-11-25T01:44:09;8.73;;;3.83;;
64854;SDS011;51321;50.428;8.378;2022-11-25T01:46:36;12.63;;;4.30;;
64854;SDS011;51321;50.428;8.378;2022-11-25T01:49:15;7.53;;;3.65;;
64854;SDS011;51321;50.428;8.378;2022-11-25T01:51:42;7.22;;;3.80;;
64854;SDS011;51321;50.428;8.378;2022-11-25T01:54:08;9.55;;;3.45;;
64854;SDS011;51321;50.428;8.378;2022-11-25T01:56:36;4.82;;;2.75;;
64854;SDS011;51321;50.428;8.378;2022-11-25T01:59:06;9.68;;;3.75;;
64854;SDS011;51321;50.428;8.378;2022-11-25T02:01:29;7.43;;;3.63;;
64854;SDS011;51321;50.428;8.378;2022-11-25T02:03:53;8.68;;;3.05;;
64854;SDS011;51321;50.428;8.378;2022-11-25T02:06:21;8.20;;;3.90;;
64854;SDS011;51321;50.428;8.378;2022-11-25T02:08:47;10.77;;;3.33;;
64854;SDS011;51321;50.428;8.378;2022-11-25T02:11:17;7.13;;;2.97;;
64854;SDS011;51321;50.428;8.378;2022-11-25T02:13:43;12.38;;;4.50;;
64854;SDS011;51321;50.428;8.378;2022-11-25T02:16:08;8.52;;;3.78;;
64854;SDS011;51321;50.428;8.378;2022-11-25T02:18:30;7.22;;;3.40;;
64854;SDS011;51321;50.428;8.378;2022-11-25T02:20:53;7.57;;;3.75;;
64854;SDS011;51321;50.428;8.378;2022-11-25T02:23:18;36.40;;;21.55;;
64854;SDS011;51321;50.428;8.378;2022-11-25T02:25:49;115.47;;;71.07;;
64854;SDS011;51321;50.428;8.378;2022-11-25T02:28:16;106.68;;;65.35;;
64854;SDS011;51321;50.428;8.378;2022-11-25T02:30:40;99.15;;;55.65;;
64854;SDS011;51321;50.428;8.378;2022-11-25T02:33:03;39.25;;;23.73;;
64854;SDS011;51321;50.428;8.378;2022-11-25T02:35:30;40.70;;;24.15;;
64854;SDS011;51321;50.428;8.378;2022-11-25T02:37:55;30.25;;;17.98;;
64854;SDS011;51321;50.428;8.378;2022-11-25T02:40:21;22.27;;;10.48;;
64854;SDS011;51321;50.428;8.378;2022-11-25T02:42:46;14.88;;;7.95;;
64854;SDS011;51321;50.428;8.378;2022-11-25T02:45:11;15.10;;;9.63;;
64854;SDS011;51321;50.428;8.378;2022-11-25T02:47:36;14.82;;;8.43;;
64854;SDS011;51321;50.428;8.378;2022-11-25T02:49:58;15.80;;;9.35;;
64854;SDS011;51321;50.428;8.378;2022-11-25T02:52:20;26.00;;;16.58;;
64854;SDS011;51321;50.428;8.378;2022-11-25T02:54:43;25.23;;;12.80;;
64854;SDS011;51321;50.428;8.378;2022-11-25T02:57:06;20.23;;;9.15;;
64854;SDS011;51321;50.428;8.378;2022-11-25T02:59:31;12.60;;;6.57;;
64854;SDS011;51321;50.428;8.378;2022-11-25T03:01:53;16.60;;;8.82;;
64854;SDS011;51321;50.428;8.378;2022-11-25T03:04:20;14.07;;;7.85;;
64854;SDS011;51321;50.428;8.378;2022-11-25T03:06:42;12.55;;;6.32;;
64854;SDS011;51321;50.428;8.378;2022-11-25T03:09:04;13.55;;;6.40;;
64854;SDS011;51321;50.428;8.378;2022-11-25T03:11:32;13.82;;;6.70;;
64854;SDS011;51321;50.428;8.378;2022-11-25T03:14:13;11.10;;;6.70;;
64854;SDS011;51321;50.428;8.378;2022-11-25T03:16:38;18.75;;;5.75;;
64854;SDS011;51321;50.428;8.378;2022-11-25T03:19:00;9.63;;;5.38;;
64854;SDS011;51321;50.428;8.378;2022-11-25T03:21:23;13.35;;;7.03;;
64854;SDS011;51321;50.428;8.378;2022-11-25T03:23:46;11.25;;;4.90;;
64854;SDS011;51321;50.428;8.378;2022-11-25T03:26:11;11.77;;;5.22;;
64854;SDS011;51321;50.428;8.378;2022-11-25T03:28:33;11.02;;;5.03;;
64854;SDS011;51321;50.428;8.378;2022-11-25T03:30:55;11.85;;;5.25;;
64854;SDS011;51321;50.428;8.378;2022-11-25T03:33:20;11.02;;;4.32;;
64854;SDS011;51321;50.428;8.378;2022-11-25T03:35:43;8.32;;;4.85;;
64854;SDS011;51321;50.428;8.378;2022-11-25T03:38:06;9.25;;;4.28;;
64854;SDS011;51321;50.428;8.378;2022-11-25T03:40:30;7.90;;;4.53;;
64854;SDS011;51321;50.428;8.378;2022-11-25T03:42:53;7.85;;;4.03;;
64854;SDS011;51321;50.428;8.378;2022-11-25T03:45:16;13.98;;;4.10;;
64854;SDS011;51321;50.428;8.378;2022-11-25T03:47:40;9.93;;;4.68;;
64854;SDS011;51321;50.428;8.378;2022-11-25T03:50:12;9.90;;;3.72;;
64854;SDS011;51321;50.428;8.378;2022-11-25T03:52:37;11.60;;;3.70;;
64854;SDS011;51321;50.428;8.378;2022-11-25T03:55:02;9.05;;;4.22;;
64854;SDS011;51321;50.428;8.378;2022-11-25T03:57:27;9.57;;;3.70;;
64854;SDS011;51321;50.428;8.378;2022-11-25T03:59:50;12.65;;;4.28;;
64854;SDS011;51321;50.428;8.378;2022-11-25T04:02:12;8.73;;;3.70;;
64854;SDS011;51321;50.428;8.378;2022-11-25T04:04:36;9.10;;;4.70;;
64854;SDS011;51321;50.428;8.378;2022-11-25T04:07:00;9.77;;;5.88;;
64854;SDS011;51321;50.428;8.378;2022-11-25T04:09:23;9.75;;;4.72;;
64854;SDS011;51321;50.428;8.378;2022-11-25T04:11:46;18.02;;;5.50;;
64854;SDS011;51321;50.428;8.378;2022-11-25T04:14:36;13.45;;;4.75;;
64854;SDS011;51321;50.428;8.378;2022-11-25T04:17:00;15.07;;;5.47;;
64854;SDS011;51321;50.428;8.378;2022-11-25T04:19:23;12.00;;;4.80;;
64854;SDS011;51321;50.428;8.378;2022-11-25T04:21:45;9.10;;;4.45;;
64854;SDS011;51321;50.428;8.378;2022-11-25T04:24:10;10.02;;;5.10;;
64854;SDS011;51321;50.428;8.378;2022-11-25T04:26:32;11.35;;;4.53;;
64854;SDS011;51321;50.428;8.378;2022-11-25T04:31:17;8.07;;;4.35;;
64854;SDS011;51321;50.428;8.378;2022-11-25T04:33:41;9.25;;;5.35;;
64854;SDS011;51321;50.428;8.378;2022-11-25T04:36:04;9.60;;;4.60;;
64854;SDS011;51321;50.428;8.378;2022-11-25T04:38:28;11.32;;;4.65;;
64854;SDS011;51321;50.428;8.378;2022-11-25T04:40:56;7.95;;;4.63;;
64854;SDS011;51321;50.428;8.378;2022-11-25T04:43:18;8.55;;;4.80;;
64854;SDS011;51321;50.428;8.378;2022-11-25T04:45:49;10.52;;;5.05;;
64854;SDS011;51321;50.428;8.378;2022-11-25T04:48:12;12.73;;;4.97;;
64854;SDS011;51321;50.428;8.378;2022-11-25T04:50:35;7.68;;;4.40;;
64854;SDS011;51321;50.428;8.378;2022-11-25T04:53:04;14.68;;;5.53;;
64854;SDS011;51321;50.428;8.378;2022-11-25T04:55:27;11.13;;;4.68;;
64854;SDS011;51321;50.428;8.378;2022-11-25T04:57:51;9.15;;;4.68;;
64854;SDS011;51321;50.428;8.378;2022-11-25T05:00:14;7.20;;;4.57;;
64854;SDS011;51321;50.428;8.378;2022-11-25T05:02:36;10.38;;;5.65;;
64854;SDS011;51321;50.428;8.378;2022-11-25T05:05:04;7.18;;;4.25;;
64854;SDS011;51321;50.428;8.378;2022-11-25T05:07:31;12.18;;;4.78;;
64854;SDS011;51321;50.428;8.378;2022-11-25T05:09:53;11.48;;;4.90;;
64854;SDS011;51321;50.428;8.378;2022-11-25T05:12:36;6.95;;;4.45;;
64854;SDS011;51321;50.428;8.378;2022-11-25T05:15:05;8.45;;;5.18;;
64854;SDS011;51321;50.428;8.378;2022-11-25T05:17:30;14.43;;;5.00;;
64854;SDS011;51321;50.428;8.378;2022-11-25T05:19:53;13.13;;;7.00;;
64854;SDS011;51321;50.428;8.378;2022-11-25T05:22:17;13.15;;;7.25;;
64854;SDS011;51321;50.428;8.378;2022-11-25T05:24:40;8.50;;;4.70;;
64854;SDS011;51321;50.428;8.378;2022-11-25T05:27:04;16.58;;;5.38;;
64854;SDS011;51321;50.428;8.378;2022-11-25T05:29:26;12.48;;;4.85;;
64854;SDS011;51321;50.428;8.378;2022-11-25T05:31:50;10.35;;;4.70;;
64854;SDS011;51321;50.428;8.378;2022-11-25T05:34:14;11.25;;;5.65;;
64854;SDS011;51321;50.428;8.378;2022-11-25T05:36:40;11.52;;;4.80;;
64854;SDS011;51321;50.428;8.378;2022-11-25T05:39:03;19.08;;;6.97;;
64854;SDS011;51321;50.428;8.378;2022-11-25T05:41:46;17.65;;;7.78;;
64854;SDS011;51321;50.428;8.378;2022-11-25T05:44:08;17.95;;;7.25;;
64854;SDS011;51321;50.428;8.378;2022-11-25T05:46:31;17.45;;;7.28;;
64854;SDS011;51321;50.428;8.378;2022-11-25T05:48:58;21.48;;;8.43;;
64854;SDS011;51321;50.428;8.378;2022-11-25T05:51:21;17.25;;;7.30;;
64854;SDS011;51321;50.428;8.378;2022-11-25T05:53:46;21.63;;;8.52;;
64854;SDS011;51321;50.428;8.378;2022-11-25T05:56:08;21.35;;;7.80;;
64854;SDS011;51321;50.428;8.378;2022-11-25T05:58:48;16.05;;;7.43;;
64854;SDS011;51321;50.428;8.378;2022-11-25T06:03:34;23.55;;;8.80;;
64854;SDS011;51321;50.428;8.378;2022-11-25T06:06:01;18.15;;;8.05;;
64854;SDS011;51321;50.428;8.378;2022-11-25T06:08:24;13.70;;;7.07;;
64854;SDS011;51321;50.428;8.378;2022-11-25T06:10:50;12.55;;;7.05;;
64854;SDS011;51321;50.428;8.378;2022-11-25T06:13:13;9.48;;;6.35;;
64854;SDS011;51321;50.428;8.378;2022-11-25T06:15:39;11.38;;;6.32;;
64854;SDS011;51321;50.428;8.378;2022-11-25T06:18:02;12.23;;;7.28;;
64854;SDS011;51321;50.428;8.378;2022-11-25T06:20:27;13.77;;;8.00;;
64854;SDS011;51321;50.428;8.378;2022-11-25T06:22:51;14.43;;;6.50;;
64854;SDS011;51321;50.428;8.378;2022-11-25T06:25:19;13.80;;;6.70;;
64854;SDS011;51321;50.428;8.378;2022-11-25T06:27:43;14.55;;;6.97;;
64854;SDS011;51321;50.428;8.378;2022-11-25T06:30:06;13.50;;;6.75;;
64854;SDS011;51321;50.428;8.378;2022-11-25T06:32:29;12.23;;;6.22;;
64854;SDS011;51321;50.428;8.378;2022-11-25T06:35:10;10.38;;;5.85;;
64854;SDS011;51321;50.428;8.378;2022-11-25T06:37:40;11.45;;;5.30;;
64854;SDS011;51321;50.428;8.378;2022-11-25T06:40:06;9.98;;;6.88;;
64854;SDS011;51321;50.428;8.378;2022-11-25T06:42:29;14.35;;;7.15;;
64854;SDS011;51321;50.428;8.378;2022-11-25T06:47:15;14.90;;;7.22;;
64854;SDS011;51321;50.428;8.378;2022-11-25T06:49:37;10.10;;;6.57;;
64854;SDS011;51321;50.428;8.378;2022-11-25T06:52:00;8.20;;;5.90;;
64854;SDS011;51321;50.428;8.378;2022-11-25T06:56:47;7.40;;;5.20;;
64854;SDS011;51321;50.428;8.378;2022-11-25T06:59:13;11.25;;;6.45;;
64854;SDS011;51321;50.428;8.378;2022-11-25T07:01:35;10.52;;;6.55;;
64854;SDS011;51321;50.428;8.378;2022-11-25T07:03:58;12.90;;;6.15;;
64854;SDS011;51321;50.428;8.378;2022-11-25T07:06:22;11.80;;;6.22;;
64854;SDS011;51321;50.428;8.378;2022-11-25T07:11:07;13.30;;;6.17;;
64854;SDS011;51321;50.428;8.378;2022-11-25T07:13:34;12.27;;;5.45;;
64854;SDS011;51321;50.428;8.378;2022-11-25T07:15:59;11.68;;;6.43;;
64854;SDS011;51321;50.428;8.378;2022-11-25T07:18:22;9.63;;;5.28;;
64854;SDS011;51321;50.428;8.378;2022-11-25T07:20:45;10.40;;;5.72;;
64854;SDS011;51321;50.428;8.378;2022-11-25T07:23:08;10.88;;;5.70;;
64854;SDS011;51321;50.428;8.378;2022-11-25T07:25:31;10.20;;;6.05;;
64854;SDS011;51321;50.428;8.378;2022-11-25T07:27:53;7.90;;;4.90;;
64854;SDS011;51321;50.428;8.378;2022-11-25T07:30:18;13.93;;;7.38;;
64854;SDS011;51321;50.428;8.378;2022-11-25T07:32:41;10.43;;;5.70;;
64854;SDS011;51321;50.428;8.378;2022-11-25T07:35:04;14.45;;;6.53;;
64854;SDS011;51321;50.428;8.378;2022-11-25T07:37:26;9.55;;;4.72;;
64854;SDS011;51321;50.428;8.378;2022-11-25T07:39:48;11.23;;;7.88;;
64854;SDS011;51321;50.428;8.378;2022-11-25T07:44:33;8.85;;;6.55;;
64854;SDS011;51321;50.428;8.378;2022-11-25T07:47:17;10.73;;;6.47;;
64854;SDS011;51321;50.428;8.378;2022-11-25T07:49:39;9.00;;;7.63;;
64854;SDS011;51321;50.428;8.378;2022-11-25T07:52:01;13.13;;;10.07;;
64854;SDS011;51321;50.428;8.378;2022-11-25T07:54:25;13.68;;;11.32;;
64854;SDS011;51321;50.428;8.378;2022-11-25T07:59:11;15.57;;;11.15;;
64854;SDS011;51321;50.428;8.378;2022-11-25T08:01:35;18.40;;;15.02;;
64854;SDS011;51321;50.428;8.378;2022-11-25T08:03:59;25.15;;;18.00;;
64854;SDS011;51321;50.428;8.378;2022-11-25T08:06:22;38.38;;;24.13;;
64854;SDS011;51321;50.428;8.378;2022-11-25T08:08:47;22.52;;;14.43;;
64854;SDS011;51321;50.428;8.378;2022-11-25T08:11:12;34.47;;;22.90;;
64854;SDS011;51321;50.428;8.378;2022-11-25T08:13:37;67.18;;;40.10;;
64854;SDS011;51321;50.428;8.378;2022-11-25T08:16:01;48.40;;;30.50;;
64854;SDS011;51321;50.428;8.378;2022-11-25T08:18:23;28.92;;;18.95;;
64854;SDS011;51321;50.428;8.378;2022-11-25T08:20:47;20.10;;;12.13;;
64854;SDS011;51321;50.428;8.378;2022-11-25T08:23:09;15.95;;;10.38;;
64854;SDS011;51321;50.428;8.378;2022-11-25T08:25:31;14.88;;;8.73;;
64854;SDS011;51321;50.428;8.378;2022-11-25T08:27:53;15.10;;;9.07;;
64854;SDS011;51321;50.428;8.378;2022-11-25T08:32:40;17.95;;;8.77;;
64854;SDS011;51321;50.428;8.378;2022-11-25T08:35:03;16.00;;;9.27;;
64854;SDS011;51321;50.428;8.378;2022-11-25T08:37:27;8.40;;;5.88;;
64854;SDS011;51321;50.428;8.378;2022-11-25T08:39:51;10.00;;;5.93;;
64854;SDS011;51321;50.428;8.378;2022-11-25T08:42:13;8.75;;;6.63;;
64854;SDS011;51321;50.428;8.378;2022-11-25T08:46:57;11.05;;;8.02;;
64854;SDS011;51321;50.428;8.378;2022-11-25T08:51:42;9.70;;;7.47;;
64854;SDS011;51321;50.428;8.378;2022-11-25T08:54:07;9.95;;;8.02;;
64854;SDS011;51321;50.428;8.378;2022-11-25T08:56:29;12.43;;;7.80;;
64854;SDS011;51321;50.428;8.378;2022-11-25T09:01:14;15.30;;;11.27;;
64854;SDS011;51321;50.428;8.378;2022-11-25T09:03:39;14.63;;;10.23;;
64854;SDS011;51321;50.428;8.378;2022-11-25T09:06:04;15.50;;;11.02;;
64854;SDS011;51321;50.428;8.378;2022-11-25T09:08:28;15.80;;;10.65;;
64854;SDS011;51321;50.428;8.378;2022-11-25T09:10:52;14.30;;;10.95;;
64854;SDS011;51321;50.428;8.378;2022-11-25T09:13:15;14.93;;;10.32;;
64854;SDS011;51321;50.428;8.378;2022-11-25T09:15:37;15.63;;;11.25;;
64854;SDS011;51321;50.428;8.378;2022-11-25T09:18:02;18.48;;;12.32;;
64854;SDS011;51321;50.428;8.378;2022-11-25T09:20:25;15.15;;;11.55;;
64854;SDS011;51321;50.428;8.378;2022-11-25T09:22:48;15.85;;;10.73;;
64854;SDS011;51321;50.428;8.378;2022-11-25T09:25:12;15.48;;;11.00;;
64854;SDS011;51321;50.428;8.378;2022-11-25T09:29:59;14.50;;;9.98;;
64854;SDS011;51321;50.428;8.378;2022-11-25T09:32:21;12.75;;;9.68;;
64854;SDS011;51321;50.428;8.378;2022-11-25T09:34:44;13.73;;;9.73;;
64854;SDS011;51321;50.428;8.378;2022-11-25T09:37:07;13.32;;;9.52;;
64854;SDS011;51321;50.428;8.378;2022-11-25T09:39:29;13.43;;;10.75;;
64854;SDS011;51321;50.428;8.378;2022-11-25T09:41:57;17.55;;;13.07;;
64854;SDS011;51321;50.428;8.378;2022-11-25T09:44:53;23.63;;;17.45;;
64854;SDS011;51321;50.428;8.378;2022-11-25T09:47:43;16.20;;;11.85;;
64854;SDS011;51321;50.428;8.378;2022-11-25T09:50:12;16.00;;;10.13;;
64854;SDS011;51321;50.428;8.378;2022-11-25T09:52:45;16.17;;;10.90;;
64854;SDS011;51321;50.428;8.378;2022-11-25T09:55:14;14.00;;;10.15;;
64854;SDS011;51321;50.428;8.378;2022-11-25T09:57:42;18.75;;;10.32;;
64854;SDS011;51321;50.428;8.378;2022-11-25T10:00:19;13.48;;;9.90;;
64854;SDS011;51321;50.428;8.378;2022-11-25T10:02:46;16.02;;;10.18;;
64854;SDS011;51321;50.428;8.378;2022-11-25T10:05:20;10.88;;;8.10;;
64854;SDS011;51321;50.428;8.378;2022-11-25T10:07:51;9.48;;;7.72;;
64854;SDS011;51321;50.428;8.378;2022-11-25T10:10:21;11.70;;;8.65;;
64854;SDS011;51321;50.428;8.378;2022-11-25T10:12:47;27.88;;;14.65;;
64854;SDS011;51321;50.428;8.378;2022-11-25T10:15:14;59.22;;;24.48;;
64854;SDS011;51321;50.428;8.378;2022-11-25T10:17:41;56.10;;;25.10;;
64854;SDS011;51321;50.428;8.378;2022-11-25T10:20:12;30.90;;;16.33;;
64854;SDS011;51321;50.428;8.378;2022-11-25T10:22:39;17.30;;;11.32;;
64854;SDS011;51321;50.428;8.378;2022-11-25T10:25:05;12.32;;;8.75;;
64854;SDS011;51321;50.428;8.378;2022-11-25T10:27:44;12.93;;;8.70;;
64854;SDS011;51321;50.428;8.378;2022-11-25T10:30:12;12.40;;;9.15;;
64854;SDS011;51321;50.428;8.378;2022-11-25T10:32:39;15.25;;;9.73;;
64854;SDS011;51321;50.428;8.378;2022-11-25T10:35:14;14.30;;;9.50;;
64854;SDS011;51321;50.428;8.378;2022-11-25T10:37:48;15.55;;;10.00;;
64854;SDS011;51321;50.428;8.378;2022-11-25T10:40:15;14.30;;;9.40;;
64854;SDS011;51321;50.428;8.378;2022-11-25T10:42:39;12.75;;;8.55;;
64854;SDS011;51321;50.428;8.378;2022-11-25T10:45:02;15.73;;;9.20;;
64854;SDS011;51321;50.428;8.378;2022-11-25T10:47:33;13.35;;;8.88;;
64854;SDS011;51321;50.428;8.378;2022-11-25T10:50:02;16.70;;;8.77;;
64854;SDS011;51321;50.428;8.378;2022-11-25T10:52:36;17.65;;;10.23;;
64854;SDS011;51321;50.428;8.378;2022-11-25T10:55:10;18.15;;;9.60;;
64854;SDS011;51321;50.428;8.378;2022-11-25T10:57:34;15.82;;;8.77;;
64854;SDS011;51321;50.428;8.378;2022-11-25T10:59:59;16.08;;;10.30;;
64854;SDS011;51321;50.428;8.378;2022-11-25T11:02:24;14.30;;;8.80;;
64854;SDS011;51321;50.428;8.378;2022-11-25T11:04:51;15.77;;;9.15;;
64854;SDS011;51321;50.428;8.378;2022-11-25T11:07:21;15.63;;;8.90;;
64854;SDS011;51321;50.428;8.378;2022-11-25T11:09:47;15.10;;;8.55;;
64854;SDS011;51321;50.428;8.378;2022-11-25T11:14:40;16.50;;;8.40;;
64854;SDS011;51321;50.428;8.378;2022-11-25T11:17:02;11.43;;;8.40;;
64854;SDS011;51321;50.428;8.378;2022-11-25T11:21:50;12.48;;;6.95;;
64854;SDS011;51321;50.428;8.378;2022-11-25T11:24:23;12.57;;;8.00;;
64854;SDS011;51321;50.428;8.378;2022-11-25T11:26:59;23.27;;;13.48;;
64854;SDS011;51321;50.428;8.378;2022-11-25T11:29:25;20.67;;;13.70;;
64854;SDS011;51321;50.428;8.378;2022-11-25T11:31:49;13.93;;;10.23;;
64854;SDS011;51321;50.428;8.378;2022-11-25T11:40:16;8.25;;;5.65;;
64854;SDS011;51321;50.428;8.378;2022-11-25T11:42:51;10.75;;;4.45;;
64854;SDS011;51321;50.428;8.378;2022-11-25T11:45:29;9.13;;;3.83;;
64854;SDS011;51321;50.428;8.378;2022-11-25T11:48:04;5.63;;;3.40;;
64854;SDS011;51321;50.428;8.378;2022-11-25T11:50:32;7.32;;;4.10;;
64854;SDS011;51321;50.428;8.378;2022-11-25T11:53:03;12.32;;;4.00;;
64854;SDS011;51321;50.428;8.378;2022-11-25T11:55:48;6.72;;;3.92;;
64854;SDS011;51321;50.428;8.378;2022-11-25T11:58:19;6.95;;;4.13;;
64854;SDS011;51321;50.428;8.378;2022-11-25T12:00:56;7.90;;;4.30;;
64854;SDS011;51321;50.428;8.378;2022-11-25T12:03:24;8.90;;;4.07;;
64854;SDS011;51321;50.428;8.378;2022-11-25T12:05:49;8.85;;;4.03;;
64854;SDS011;51321;50.428;8.378;2022-11-25T12:08:16;5.90;;;3.15;;
64854;SDS011;51321;50.428;8.378;2022-11-25T12:10:44;8.98;;;4.05;;
64854;SDS011;51321;50.428;8.378;2022-11-25T12:13:14;6.68;;;3.35;;
64854;SDS011;51321;50.428;8.378;2022-11-25T12:15:42;9.80;;;4.05;;
64854;SDS011;51321;50.428;8.378;2022-11-25T12:18:10;8.77;;;3.75;;
64854;SDS011;51321;50.428;8.378;2022-11-25T12:20:41;8.88;;;3.50;;
64854;SDS011;51321;50.428;8.378;2022-11-25T12:23:12;9.38;;;3.05;;
64854;SDS011;51321;50.428;8.378;2022-11-25T12:25:40;8.07;;;3.00;;
64854;SDS011;51321;50.428;8.378;2022-11-25T12:28:04;6.07;;;2.60;;
64854;SDS011;51321;50.428;8.378;2022-11-25T12:30:33;8.43;;;4.30;;
64854;SDS011;51321;50.428;8.378;2022-11-25T12:33:01;7.22;;;4.80;;
64854;SDS011;51321;50.428;8.378;2022-11-25T12:35:35;7.45;;;4.30;;
64854;SDS011;51321;50.428;8.378;2022-11-25T12:38:04;9.32;;;4.10;;
64854;SDS011;51321;50.428;8.378;2022-11-25T12:40:39;8.00;;;3.83;;
64854;SDS011;51321;50.428;8.378;2022-11-25T12:43:10;7.28;;;2.90;;
64854;SDS011;51321;50.428;8.378;2022-11-25T12:45:43;8.15;;;3.00;;
64854;SDS011;51321;50.428;8.378;2022-11-25T12:48:09;7.00;;;3.92;;
64854;SDS011;51321;50.428;8.378;2022-11-25T12:50:38;6.22;;;3.60;;
64854;SDS011;51321;50.428;8.378;2022-11-25T12:53:08;6.90;;;3.85;;
64854;SDS011;51321;50.428;8.378;2022-11-25T12:55:37;7.82;;;4.10;;
64854;SDS011;51321;50.428;8.378;2022-11-25T12:58:18;5.80;;;3.72;;
64854;SDS011;51321;50.428;8.378;2022-11-25T13:01:18;7.50;;;3.08;;
64854;SDS011;51321;50.428;8.378;2022-11-25T13:04:23;15.20;;;10.50;;
64854;SDS011;51321;50.428;8.378;2022-11-25T13:07:05;6.50;;;3.22;;
64854;SDS011;51321;50.428;8.378;2022-11-25T13:09:59;8.05;;;3.75;;
64854;SDS011;51321;50.428;8.378;2022-11-25T13:12:36;7.40;;;2.08;;
64854;SDS011;51321;50.428;8.378;2022-11-25T13:15:22;7.88;;;2.10;;
64854;SDS011;51321;50.428;8.378;2022-11-25T13:17:49;6.93;;;2.58;;
64854;SDS011;51321;50.428;8.378;2022-11-25T13:20:33;6.43;;;2.08;;
64854;SDS011;51321;50.428;8.378;2022-11-25T13:23:21;5.15;;;1.83;;
64854;SDS011;51321;50.428;8.378;2022-11-25T13:25:50;5.22;;;1.38;;
64854;SDS011;51321;50.428;8.378;2022-11-25T13:28:26;6.13;;;1.90;;
64854;SDS011;51321;50.428;8.378;2022-11-25T13:30:54;5.10;;;1.80;;
64854;SDS011;51321;50.428;8.378;2022-11-25T13:34:01;3.83;;;1.60;;
64854;SDS011;51321;50.428;8.378;2022-11-25T13:36:46;3.85;;;1.85;;
64854;SDS011;51321;50.428;8.378;2022-11-25T13:39:13;7.78;;;1.92;;
64854;SDS011;51321;50.428;8.378;2022-11-25T13:41:41;8.77;;;1.60;;
64854;SDS011;51321;50.428;8.378;2022-11-25T13:44:25;7.13;;;1.77;;
64854;SDS011;51321;50.428;8.378;2022-11-25T13:46:52;5.57;;;1.73;;
64854;SDS011;51321;50.428;8.378;2022-11-25T13:49:22;6.50;;;1.80;;
64854;SDS011;51321;50.428;8.378;2022-11-25T13:51:54;6.80;;;1.33;;
64854;SDS011;51321;50.428;8.378;2022-11-25T13:54:20;4.35;;;1.70;;
64854;SDS011;51321;50.428;8.378;2022-11-25T13:57:13;4.10;;;1.25;;
64854;SDS011;51321;50.428;8.378;2022-11-25T13:59:48;4.90;;;1.35;;
64854;SDS011;51321;50.428;8.378;2022-11-25T14:05:17;8.90;;;1.90;;
64854;SDS011;51321;50.428;8.378;2022-11-25T14:08:09;11.90;;;1.85;;
64854;SDS011;51321;50.428;8.378;2022-11-25T14:10:54;11.98;;;1.75;;
64854;SDS011;51321;50.428;8.378;2022-11-25T14:13:34;14.35;;;3.15;;
64854;SDS011;51321;50.428;8.378;2022-11-25T14:19:17;10.25;;;1.90;;
64854;SDS011;51321;50.428;8.378;2022-11-25T14:22:15;10.07;;;1.98;;
64854;SDS011;51321;50.428;8.378;2022-11-25T14:25:08;8.57;;;1.63;;
64854;SDS011;51321;50.428;8.378;2022-11-25T14:27:38;11.65;;;2.17;;
64854;SDS011;51321;50.428;8.378;2022-11-25T14:30:07;5.82;;;2.33;;
64854;SDS011;51321;50.428;8.378;2022-11-25T14:32:33;9.50;;;2.03;;
64854;SDS011;51321;50.428;8.378;2022-11-25T14:35:01;10.27;;;2.65;;
64854;SDS011;51321;50.428;8.378;2022-11-25T14:37:31;8.75;;;2.10;;
64854;SDS011;51321;50.428;8.378;2022-11-25T14:40:00;10.65;;;2.40;;
64854;SDS011;51321;50.428;8.378;2022-11-25T14:42:33;6.57;;;1.60;;
64854;SDS011;51321;50.428;8.378;2022-11-25T14:45:02;10.43;;;2.15;;
64854;SDS011;51321;50.428;8.378;2022-11-25T14:47:39;8.18;;;1.85;;
64854;SDS011;51321;50.428;8.378;2022-11-25T14:50:02;7.97;;;1.65;;
64854;SDS011;51321;50.428;8.378;2022-11-25T14:52:26;8.48;;;2.00;;
64854;SDS011;51321;50.428;8.378;2022-11-25T14:54:54;7.07;;;2.05;;
64854;SDS011;51321;50.428;8.378;2022-11-25T14:57:20;10.35;;;1.70;;
64854;SDS011;51321;50.428;8.378;2022-11-25T14:59:45;11.65;;;2.78;;
64854;SDS011;51321;50.428;8.378;2022-11-25T15:02:20;13.55;;;2.50;;
64854;SDS011;51321;50.428;8.378;2022-11-25T15:04:46;12.13;;;2.67;;
64854;SDS011;51321;50.428;8.378;2022-11-25T15:07:14;11.95;;;2.95;;
64854;SDS011;51321;50.428;8.378;2022-11-25T15:09:42;14.75;;;4.90;;
64854;SDS011;51321;50.428;8.378;2022-11-25T15:12:11;17.17;;;4.45;;
64854;SDS011;51321;50.428;8.378;2022-11-25T15:14:39;20.50;;;4.65;;
64854;SDS011;51321;50.428;8.378;2022-11-25T15:17:05;21.83;;;4.85;;
64854;SDS011;51321;50.428;8.378;2022-11-25T15:19:30;12.52;;;2.38;;
64854;SDS011;51321;50.428;8.378;2022-11-25T15:21:55;11.32;;;2.92;;
64854;SDS011;51321;50.428;8.378;2022-11-25T15:24:21;12.57;;;2.97;;
64854;SDS011;51321;50.428;8.378;2022-11-25T15:26:47;10.68;;;2.85;;
64854;SDS011;51321;50.428;8.378;2022-11-25T15:29:14;11.75;;;3.45;;
64854;SDS011;51321;50.428;8.378;2022-11-25T15:31:37;14.65;;;3.60;;